Time;durP1;ratioP1;P1;durP2;ratioP2;P2;SDS_P1;SDS_P2;PMS_P1;PMS_P2;Temp;Humidity;BMP_temperature;BMP_pressure;BME280_temperature;BME280_humidity;BME280_pressure;Samples;Min_cycle;Max_cycle;Signal;HPM_P1;HPM_P2
2023/12/16 00:01:52;;;;;;;54.40;30.60;;;;;;;1.48;79.90;100739.88;108938;1252;94674;-72
2023/12/16 00:04:34;;;;;;;52.40;28.00;;;;;;;1.46;79.92;100741.65;108854;1252;95522;-72
2023/12/16 00:07:00;;;;;;;57.30;29.80;;;;;;;1.45;79.60;100749.00;108845;1252;94293;-72
2023/12/16 00:09:27;;;;;;;51.40;28.80;;;;;;;1.43;79.84;100750.60;108651;1252;94668;-72
2023/12/16 00:11:54;;;;;;;51.70;27.40;;;;;;;1.42;80.02;100745.02;108615;1253;94326;-72
2023/12/16 00:14:20;;;;;;;51.70;29.10;;;;;;;1.42;79.78;100750.27;108843;1252;95206;-72
2023/12/16 00:16:47;;;;;;;53.30;29.00;;;;;;;1.42;79.66;100760.58;108874;1252;94308;-72
2023/12/16 00:19:14;;;;;;;50.80;28.70;;;;;;;1.41;79.63;100761.46;108846;1252;94252;-72
2023/12/16 00:21:40;;;;;;;53.80;29.20;;;;;;;1.41;79.62;100768.29;108849;1252;94239;-72
2023/12/16 00:24:07;;;;;;;51.60;30.00;;;;;;;1.41;79.54;100774.20;108845;1252;94805;-72
2023/12/16 00:26:33;;;;;;;49.30;27.70;;;;;;;1.42;79.90;100777.70;108742;1253;94757;-72
2023/12/16 00:29:00;;;;;;;54.00;29.60;;;;;;;1.43;79.73;100776.99;108850;1252;94360;-72
2023/12/16 00:31:26;;;;;;;54.40;28.30;;;;;;;1.42;79.65;100783.48;108854;1252;94551;-72
2023/12/16 00:33:52;;;;;;;50.90;26.70;;;;;;;1.41;79.70;100781.90;108837;1252;94272;-71
2023/12/16 00:36:19;;;;;;;52.80;28.80;;;;;;;1.41;79.39;100781.73;108813;1252;94322;-72
2023/12/16 00:38:45;;;;;;;49.80;28.70;;;;;;;1.42;79.50;100779.29;108875;1252;95283;-72
2023/12/16 00:41:12;;;;;;;54.90;29.70;;;;;;;1.44;79.59;100775.06;108817;1252;95474;-72
2023/12/16 00:43:38;;;;;;;58.00;33.20;;;;;;;1.43;79.96;100787.82;108840;1252;94752;-72
2023/12/16 00:46:05;;;;;;;56.30;29.90;;;;;;;1.40;79.53;100791.88;108807;1252;94679;-72
2023/12/16 00:48:31;;;;;;;53.20;31.00;;;;;;;1.39;79.66;100789.79;108888;1252;95592;-72
2023/12/16 00:50:58;;;;;;;50.10;28.40;;;;;;;1.38;79.80;100792.95;108813;1252;94453;-71
2023/12/16 00:53:24;;;;;;;54.30;29.00;;;;;;;1.37;79.71;100792.08;108902;1252;94333;-71
2023/12/16 00:55:51;;;;;;;51.40;28.10;;;;;;;1.36;79.50;100789.80;108786;1252;95017;-72
2023/12/16 00:58:17;;;;;;;51.60;27.60;;;;;;;1.35;79.47;100793.14;108880;1252;95224;-73
2023/12/16 01:00:44;;;;;;;53.80;28.70;;;;;;;1.32;79.70;100805.02;108777;1252;94522;-71
2023/12/16 01:03:13;;;;;;;51.50;27.90;;;;;;;1.31;79.50;100807.31;108534;1253;109435;-72
2023/12/16 01:05:39;;;;;;;55.20;30.20;;;;;;;1.29;79.29;100804.17;108807;1252;94350;-71
2023/12/16 01:08:06;;;;;;;51.40;28.50;;;;;;;1.29;79.43;100808.38;108769;1252;94216;-71
2023/12/16 01:10:32;;;;;;;49.10;26.20;;;;;;;1.28;79.53;100800.34;108697;1252;94302;-72
2023/12/16 01:12:58;;;;;;;49.60;27.30;;;;;;;1.30;79.38;100802.77;108798;1253;94260;-72
2023/12/16 01:15:25;;;;;;;49.50;26.10;;;;;;;1.31;79.50;100805.91;108807;1252;94619;-72
2023/12/16 01:18:10;;;;;;;48.00;25.00;;;;;;;1.32;79.67;100807.48;108844;1253;94289;-72
2023/12/16 01:20:37;;;;;;;46.50;25.40;;;;;;;1.33;79.17;100803.46;108847;1252;94247;-72
2023/12/16 01:23:03;;;;;;;45.90;25.70;;;;;;;1.34;79.51;100797.69;108758;1252;94245;-71
2023/12/16 01:25:29;;;;;;;49.90;26.00;;;;;;;1.34;79.62;100792.27;108744;1253;94542;-72
2023/12/16 01:27:56;;;;;;;42.20;22.50;;;;;;;1.34;79.40;100767.79;108763;1252;94797;-72
2023/12/16 01:30:24;;;;;;;47.40;24.80;;;;;;;1.34;79.62;100760.98;108762;1252;94275;-72
2023/12/16 01:32:51;;;;;;;46.90;25.30;;;;;;;1.33;79.14;100763.09;108796;1252;94390;-72
2023/12/16 01:35:18;;;;;;;47.30;24.00;;;;;;;1.31;79.54;100758.36;108531;1253;110423;-72
2023/12/16 01:37:44;;;;;;;48.40;25.90;;;;;;;1.29;79.17;100756.64;108616;1252;94563;-72
2023/12/16 01:40:11;;;;;;;49.30;27.00;;;;;;;1.26;79.18;100762.77;108802;1253;95397;-71
2023/12/16 01:42:38;;;;;;;49.70;26.90;;;;;;;1.20;79.16;100773.33;108735;1252;94260;-72
2023/12/16 01:45:05;;;;;;;54.10;30.50;;;;;;;1.15;78.95;100788.55;108737;1253;94264;-72
2023/12/16 01:47:31;;;;;;;56.10;31.50;;;;;;;1.08;78.78;100794.18;108797;1251;95574;-72
2023/12/16 01:49:58;;;;;;;52.60;30.30;;;;;;;1.01;79.18;100793.70;108759;1252;96051;-72
2023/12/16 01:52:25;;;;;;;56.00;31.80;;;;;;;0.96;79.20;100789.17;108799;1252;94614;-72
2023/12/16 01:54:52;;;;;;;55.90;31.00;;;;;;;0.96;79.46;100788.66;108793;1252;94378;-72
2023/12/16 01:57:18;;;;;;;58.70;33.90;;;;;;;0.96;79.27;100790.23;108795;1252;94629;-72
2023/12/16 01:59:45;;;;;;;59.30;32.60;;;;;;;0.97;79.46;100789.88;108778;1252;94691;-72
2023/12/16 02:02:13;;;;;;;56.40;32.30;;;;;;;0.98;79.28;100784.11;108811;1253;94452;-71
2023/12/16 02:04:40;;;;;;;59.10;35.50;;;;;;;1.02;79.32;100789.84;108797;1253;94399;-71
2023/12/16 02:07:06;;;;;;;56.40;33.60;;;;;;;1.06;79.48;100797.33;108851;1252;94314;-71
2023/12/16 02:09:33;;;;;;;51.40;29.70;;;;;;;1.09;79.34;100792.08;108844;1252;94503;-71
2023/12/16 02:12:00;;;;;;;52.70;31.30;;;;;;;1.12;79.46;100787.34;108833;1252;94280;-71
2023/12/16 02:14:26;;;;;;;55.80;31.00;;;;;;;1.16;79.40;100782.61;108752;1252;95018;-70
2023/12/16 02:16:53;;;;;;;54.60;29.80;;;;;;;1.18;79.58;100786.78;108698;1253;94334;-70
2023/12/16 02:19:25;;;;;;;54.10;30.00;;;;;;;1.21;79.40;100792.52;108736;1252;95981;-70
2023/12/16 02:21:52;;;;;;;55.60;31.10;;;;;;;1.23;79.51;100796.01;108780;1253;107617;-70
2023/12/16 02:24:19;;;;;;;52.60;29.30;;;;;;;1.26;79.50;100795.46;108786;1252;94222;-70
2023/12/16 02:26:46;;;;;;;53.00;31.50;;;;;;;1.28;79.67;100795.63;108828;1252;94230;-71
2023/12/16 02:29:31;;;;;;;50.50;28.40;;;;;;;1.28;79.34;100793.87;108848;1252;94293;-70
2023/12/16 02:31:58;;;;;;;49.40;29.50;;;;;;;1.27;79.18;100801.40;108870;1253;95224;-70
2023/12/16 02:34:24;;;;;;;51.50;30.10;;;;;;;1.28;79.32;100810.66;108830;1253;94564;-71
2023/12/16 02:36:51;;;;;;;49.20;28.90;;;;;;;1.29;79.47;100813.98;108884;1253;94700;-70
2023/12/16 02:39:17;;;;;;;47.30;25.30;;;;;;;1.30;79.46;100823.40;108834;1253;94493;-70
2023/12/16 02:41:44;;;;;;;48.70;25.50;;;;;;;1.30;79.31;100831.43;108699;1253;94669;-70
2023/12/16 02:44:10;;;;;;;45.00;24.70;;;;;;;1.30;79.43;100835.64;108807;1252;107224;-70
2023/12/16 02:46:36;;;;;;;44.00;25.40;;;;;;;1.32;79.17;100834.23;108804;1253;94379;-71
2023/12/16 02:49:03;;;;;;;45.40;24.80;;;;;;;1.34;79.51;100837.89;108827;1252;94567;-70
2023/12/16 02:51:29;;;;;;;47.20;25.80;;;;;;;1.36;79.65;100841.73;108841;1252;94326;-70
2023/12/16 02:53:56;;;;;;;46.90;26.40;;;;;;;1.37;79.64;100847.66;108831;1253;94332;-70
2023/12/16 02:56:22;;;;;;;45.60;26.60;;;;;;;1.38;79.24;100849.06;108846;1253;94310;-70
2023/12/16 02:58:50;;;;;;;42.10;23.80;;;;;;;1.37;79.39;100842.95;108853;1252;94379;-70
2023/12/16 03:01:16;;;;;;;46.40;26.40;;;;;;;1.39;79.56;100843.45;108809;1253;94706;-70
2023/12/16 03:03:42;;;;;;;52.10;28.60;;;;;;;1.37;79.17;100839.80;108850;1253;95162;-70
2023/12/16 03:06:09;;;;;;;43.00;24.80;;;;;;;1.37;79.58;100837.17;108875;1252;94286;-70
2023/12/16 03:08:36;;;;;;;45.50;26.10;;;;;;;1.38;79.52;100832.98;108892;1253;94628;-70
2023/12/16 03:11:03;;;;;;;43.60;24.10;;;;;;;1.40;79.55;100834.54;108619;1253;108977;-70
2023/12/16 03:13:30;;;;;;;45.20;24.20;;;;;;;1.39;79.67;100838.73;108849;1253;94724;-70
2023/12/16 03:15:57;;;;;;;41.80;22.50;;;;;;;1.41;79.62;100838.72;108801;1253;94286;-70
2023/12/16 03:18:23;;;;;;;41.90;23.70;;;;;;;1.43;79.76;100834.85;108785;1252;94669;-70
2023/12/16 03:20:50;;;;;;;36.60;20.80;;;;;;;1.44;79.83;100835.38;108808;1253;94317;-70
2023/12/16 03:23:17;;;;;;;39.70;20.40;;;;;;;1.45;79.57;100827.85;108872;1253;94326;-71
2023/12/16 03:25:43;;;;;;;39.00;21.00;;;;;;;1.47;79.69;100822.75;108836;1253;107298;-70
2023/12/16 03:28:11;;;;;;;38.10;19.30;;;;;;;1.52;79.85;100824.66;108792;1252;94265;-70
2023/12/16 03:30:39;;;;;;;37.90;19.50;;;;;;;1.52;79.61;100819.41;108560;1252;94294;-71
2023/12/16 03:33:07;;;;;;;38.40;19.50;;;;;;;1.55;79.90;100817.82;108806;1253;111403;-70
2023/12/16 03:35:34;;;;;;;40.40;23.20;;;;;;;1.57;79.71;100818.50;108591;1253;95612;-70
2023/12/16 03:38:00;;;;;;;37.30;21.20;;;;;;;1.59;79.84;100823.73;108790;1253;94710;-71
2023/12/16 03:40:27;;;;;;;37.60;19.80;;;;;;;1.58;79.78;100823.91;108819;1253;95519;-70
2023/12/16 03:42:54;;;;;;;37.00;20.00;;;;;;;1.60;79.92;100826.88;108825;1253;94496;-71
2023/12/16 03:45:20;;;;;;;38.90;20.60;;;;;;;1.63;80.02;100827.02;108952;1253;94345;-70
2023/12/16 03:47:46;;;;;;;39.20;20.00;;;;;;;1.66;79.80;100819.65;108884;1253;107778;-70
2023/12/16 03:50:13;;;;;;;39.40;20.10;;;;;;;1.68;79.71;100818.59;108703;1252;94249;-70
2023/12/16 03:52:39;;;;;;;37.60;20.20;;;;;;;1.70;79.90;100826.61;108773;1257;94247;-71
2023/12/16 03:55:06;;;;;;;37.40;19.30;;;;;;;1.71;79.81;100823.29;108917;1253;94354;-70
2023/12/16 03:57:33;;;;;;;36.70;18.60;;;;;;;1.72;79.92;100829.75;108769;1253;107928;-70
2023/12/16 04:00:00;;;;;;;38.40;19.70;;;;;;;1.74;79.90;100832.54;108756;1253;94410;-70
2023/12/16 04:02:26;;;;;;;39.90;21.00;;;;;;;1.76;80.06;100828.86;108678;1253;94382;-70
2023/12/16 04:04:53;;;;;;;37.70;20.30;;;;;;;1.78;79.94;100825.16;108850;1253;94603;-70
2023/12/16 04:07:19;;;;;;;36.20;19.30;;;;;;;1.81;79.88;100830.05;108881;1252;94515;-70
2023/12/16 04:09:46;;;;;;;37.40;18.80;;;;;;;1.82;79.79;100831.95;108797;1252;94705;-70
2023/12/16 04:12:13;;;;;;;36.70;19.20;;;;;;;1.84;79.97;100830.35;108868;1253;94493;-70
2023/12/16 04:14:39;;;;;;;37.60;18.30;;;;;;;1.85;79.86;100828.23;108559;1255;96541;-70
2023/12/16 04:17:06;;;;;;;35.30;18.70;;;;;;;1.86;79.79;100833.13;108811;1252;94302;-70
2023/12/16 04:19:32;;;;;;;37.10;18.00;;;;;;;1.87;79.95;100829.10;108836;1253;94303;-70
2023/12/16 04:21:59;;;;;;;37.60;18.60;;;;;;;1.90;79.89;100828.73;108902;1253;94285;-72
2023/12/16 04:24:25;;;;;;;36.90;18.30;;;;;;;1.93;80.02;100828.17;108855;1252;110277;-70
2023/12/16 04:26:52;;;;;;;38.60;18.70;;;;;;;1.93;79.95;100830.63;108818;1252;94254;-70
2023/12/16 04:29:18;;;;;;;33.60;17.20;;;;;;;1.96;79.87;100831.48;108829;1253;94227;-70
2023/12/16 04:31:45;;;;;;;31.70;15.10;;;;;;;1.98;79.83;100829.70;108862;1252;94318;-70
2023/12/16 04:34:11;;;;;;;38.00;16.80;;;;;;;1.99;79.79;100821.48;108850;1252;110621;-70
2023/12/16 04:36:38;;;;;;;33.80;17.00;;;;;;;2.00;79.71;100808.52;108799;1256;94261;-70
2023/12/16 04:39:07;;;;;;;35.00;16.10;;;;;;;2.03;79.66;100802.55;108787;1253;94277;-70
2023/12/16 04:41:34;;;;;;;32.50;16.00;;;;;;;2.05;80.01;100809.69;108843;1253;94259;-70
2023/12/16 04:44:00;;;;;;;34.50;16.60;;;;;;;2.07;79.58;100811.42;108883;1252;94870;-70
2023/12/16 04:46:26;;;;;;;31.80;15.90;;;;;;;2.08;79.97;100820.17;108657;1253;94500;-70
2023/12/16 04:48:54;;;;;;;32.10;14.80;;;;;;;2.10;79.82;100816.48;108895;1253;94451;-70
2023/12/16 04:51:20;;;;;;;33.00;16.40;;;;;;;2.13;79.76;100818.03;108815;1253;94473;-69
2023/12/16 04:53:47;;;;;;;40.70;21.10;;;;;;;2.16;79.86;100823.42;108848;1252;94349;-70
2023/12/16 04:56:13;;;;;;;37.40;16.80;;;;;;;2.18;79.94;100820.60;108822;1253;94274;-70
2023/12/16 04:58:40;;;;;;;33.40;15.90;;;;;;;2.20;79.90;100828.11;108610;1253;94396;-70
2023/12/16 05:01:06;;;;;;;33.40;15.90;;;;;;;2.24;79.80;100828.59;108862;1253;94429;-70
2023/12/16 05:03:33;;;;;;;31.40;14.60;;;;;;;2.27;79.66;100831.54;108912;1251;94290;-70
2023/12/16 05:06:00;;;;;;;31.60;15.30;;;;;;;2.30;80.11;100830.29;108857;1253;94267;-70
2023/12/16 05:08:26;;;;;;;32.80;15.70;;;;;;;2.32;79.95;100834.81;108858;1253;94673;-70
2023/12/16 05:10:53;;;;;;;31.40;16.20;;;;;;;2.34;79.84;100830.42;108814;1252;94341;-70
2023/12/16 05:13:19;;;;;;;31.60;15.20;;;;;;;2.37;79.72;100830.21;108651;1253;94726;-70
2023/12/16 05:15:46;;;;;;;29.40;14.40;;;;;;;2.39;79.98;100826.70;108854;1253;109702;-70
2023/12/16 05:18:12;;;;;;;29.30;14.30;;;;;;;2.40;80.09;100827.90;108905;1252;94416;-71
2023/12/16 05:20:39;;;;;;;33.70;16.60;;;;;;;2.41;79.85;100828.42;108829;1252;94241;-70
2023/12/16 05:23:05;;;;;;;31.90;15.70;;;;;;;2.43;79.84;100837.69;108771;1253;94322;-70
2023/12/16 05:25:31;;;;;;;32.00;15.10;;;;;;;2.44;79.99;100838.55;108906;1253;94375;-70
2023/12/16 05:27:58;;;;;;;34.30;16.40;;;;;;;2.44;79.92;100839.08;108857;1253;97307;-70
2023/12/16 05:30:24;;;;;;;31.90;15.70;;;;;;;2.44;80.09;100845.20;108817;1253;94752;-70
2023/12/16 05:32:51;;;;;;;33.00;16.10;;;;;;;2.44;79.94;100843.45;108767;1253;94563;-70
2023/12/16 05:35:19;;;;;;;32.60;16.00;;;;;;;2.44;79.83;100845.03;108890;1253;94261;-70
2023/12/16 05:37:46;;;;;;;31.70;15.40;;;;;;;2.45;79.60;100853.42;108804;1253;94323;-70
2023/12/16 05:40:13;;;;;;;35.70;17.30;;;;;;;2.46;79.78;100870.92;108852;1253;94426;-71
2023/12/16 05:42:40;;;;;;;32.20;16.10;;;;;;;2.45;79.90;100877.39;108886;1253;94540;-70
2023/12/16 05:45:07;;;;;;;33.30;16.50;;;;;;;2.46;79.95;100886.51;108608;1258;94365;-70
2023/12/16 05:47:34;;;;;;;34.00;15.90;;;;;;;2.47;79.95;100890.16;108835;1252;109565;-71
2023/12/16 05:50:03;;;;;;;33.90;17.50;;;;;;;2.48;79.80;100900.48;108891;1252;94721;-70
2023/12/16 05:52:30;;;;;;;31.40;15.30;;;;;;;2.47;80.12;100906.27;108804;1253;108085;-71
2023/12/16 05:54:58;;;;;;;36.50;18.20;;;;;;;2.45;79.79;100908.58;108797;1253;94264;-71
2023/12/16 05:57:25;;;;;;;35.40;16.70;;;;;;;2.45;79.84;100911.73;108816;1253;94244;-70
2023/12/16 05:59:52;;;;;;;35.10;17.70;;;;;;;2.46;79.83;100915.38;108828;1253;94850;-70
2023/12/16 06:02:18;;;;;;;35.00;16.70;;;;;;;2.48;80.00;100913.80;108794;1252;94545;-70
2023/12/16 06:04:45;;;;;;;34.30;16.20;;;;;;;2.47;79.63;100912.22;108739;1253;94702;-71
2023/12/16 06:07:11;;;;;;;33.20;18.60;;;;;;;2.47;79.93;100909.78;108793;1252;94380;-70
2023/12/16 06:09:37;;;;;;;34.40;17.70;;;;;;;2.47;79.68;100913.28;108897;1253;109895;-70
2023/12/16 06:12:04;;;;;;;40.90;18.70;;;;;;;2.49;79.87;100919.39;108752;1253;94298;-70
2023/12/16 06:14:31;;;;;;;37.80;18.40;;;;;;;2.50;79.83;100917.63;108833;1253;94552;-70
2023/12/16 06:16:57;;;;;;;37.80;19.00;;;;;;;2.50;79.93;100921.13;108810;1252;94768;-72
2023/12/16 06:19:24;;;;;;;37.90;19.20;;;;;;;2.49;79.81;100919.73;108567;1253;94558;-73
2023/12/16 06:21:54;;;;;;;38.50;20.80;;;;;;;2.50;79.92;100918.50;108825;1252;96595;-73
2023/12/16 06:24:20;;;;;;;43.30;21.80;;;;;;;2.51;79.88;100923.58;108830;1253;94672;-72
2023/12/16 06:26:47;;;;;;;41.50;21.90;;;;;;;2.51;80.00;100922.36;108684;1253;94323;-73
2023/12/16 06:29:13;;;;;;;42.10;21.80;;;;;;;2.51;79.63;100928.83;108834;1253;94273;-72
2023/12/16 06:31:40;;;;;;;50.10;26.90;;;;;;;2.51;80.01;100934.45;108931;1253;94263;-72
2023/12/16 06:34:06;;;;;;;50.20;29.00;;;;;;;2.50;79.83;100939.52;108853;1253;107160;-72
2023/12/16 06:36:33;;;;;;;53.00;28.80;;;;;;;2.50;79.83;100938.12;108873;1253;94500;-73
2023/12/16 06:38:59;;;;;;;54.00;28.40;;;;;;;2.49;79.98;100944.25;108788;1253;94682;-72
2023/12/16 06:41:29;;;;;;;47.00;27.60;;;;;;;2.49;79.98;100936.36;108955;1253;94705;-72
2023/12/16 06:43:55;;;;;;;53.50;31.00;;;;;;;2.51;79.86;100928.31;108826;1253;105468;-72
2023/12/16 06:46:23;;;;;;;61.70;34.40;;;;;;;2.52;79.95;100931.45;108725;1256;94483;-72
2023/12/16 06:48:50;;;;;;;48.20;28.30;;;;;;;2.51;80.01;100938.64;108850;1253;94328;-73
2023/12/16 06:51:16;;;;;;;45.70;25.30;;;;;;;2.51;80.21;100938.30;108744;1253;94692;-73
2023/12/16 06:53:43;;;;;;;45.20;24.80;;;;;;;2.50;79.81;100942.51;108718;1253;94276;-74
2023/12/16 06:56:10;;;;;;;51.20;29.00;;;;;;;2.49;79.81;100947.59;108771;1253;94728;-74
2023/12/16 06:58:37;;;;;;;63.40;36.10;;;;;;;2.49;80.01;100947.41;108768;1253;94402;-74
2023/12/16 07:01:04;;;;;;;54.10;29.50;;;;;;;2.49;79.89;100952.84;108595;1253;110650;-76
2023/12/16 07:03:30;;;;;;;50.20;27.50;;;;;;;2.50;79.90;100951.61;108725;1253;94610;-76
2023/12/16 07:05:57;;;;;;;49.30;24.80;;;;;;;2.55;80.10;100949.65;108760;1253;94564;-76
2023/12/16 07:08:24;;;;;;;48.90;27.00;;;;;;;2.60;80.20;100943.47;108779;1253;94553;-76
2023/12/16 07:10:50;;;;;;;45.70;26.40;;;;;;;2.62;79.97;100941.34;108926;1253;94536;-76
2023/12/16 07:13:23;;;;;;;44.70;24.60;;;;;;;2.61;79.76;100944.52;108777;1253;95478;-76
2023/12/16 07:16:05;;;;;;;46.90;25.50;;;;;;;2.63;79.67;100940.98;108742;1252;107667;-75
2023/12/16 07:18:36;;;;;;;46.40;23.90;;;;;;;2.63;79.88;100940.81;108816;1253;94435;-76
2023/12/16 07:21:07;;;;;;;48.40;25.90;;;;;;;2.64;79.85;100940.64;108757;1253;94361;-76
2023/12/16 07:23:37;;;;;;;46.00;26.20;;;;;;;2.65;79.84;100944.80;108771;1253;109958;-76
2023/12/16 07:26:12;;;;;;;51.20;26.10;;;;;;;2.65;79.81;100952.52;108585;1253;95964;-74
2023/12/16 07:28:39;;;;;;;49.50;25.90;;;;;;;2.67;79.92;100954.79;108852;1253;107703;-76
2023/12/16 07:31:07;;;;;;;49.40;25.30;;;;;;;2.69;80.23;100957.04;108790;1253;94673;-75
2023/12/16 07:33:37;;;;;;;44.30;23.60;;;;;;;2.70;79.86;100951.94;108766;1253;94244;-78
2023/12/16 07:36:24;;;;;;;45.90;24.70;;;;;;;2.72;80.00;100955.42;108612;1253;109119;-78
2023/12/16 07:38:59;;;;;;;45.30;25.20;;;;;;;2.73;79.92;100957.01;108538;1253;95544;-78
2023/12/16 07:41:26;;;;;;;48.60;24.80;;;;;;;2.73;79.75;100962.43;108451;1253;107613;-78
2023/12/16 07:43:52;;;;;;;44.30;22.90;;;;;;;2.76;79.92;100958.55;108727;1253;94541;-74
2023/12/16 07:46:19;;;;;;;44.90;23.10;;;;;;;2.76;79.83;100952.94;108888;1253;94281;-73
2023/12/16 07:48:45;;;;;;;44.30;23.40;;;;;;;2.78;79.73;100948.38;108854;1254;94791;-73
2023/12/16 07:51:19;;;;;;;49.60;27.20;;;;;;;2.80;79.84;100955.52;108990;1251;94256;-76
2023/12/16 07:53:56;;;;;;;45.00;22.90;;;;;;;2.81;80.09;100955.86;108629;1256;94679;-77
2023/12/16 07:56:27;;;;;;;48.60;24.10;;;;;;;2.82;80.17;100957.79;108659;1253;94332;-73
2023/12/16 07:58:55;;;;;;;49.50;24.60;;;;;;;2.82;79.96;100956.75;108817;1253;94269;-73
2023/12/16 08:01:21;;;;;;;48.50;24.80;;;;;;;2.80;79.82;100954.13;108748;1253;94362;-77
2023/12/16 08:03:48;;;;;;;45.80;24.30;;;;;;;2.81;80.06;100954.30;108777;1253;94406;-76
2023/12/16 08:06:17;;;;;;;45.00;23.40;;;;;;;2.82;80.07;100950.95;108791;1253;94378;-76
2023/12/16 08:08:45;;;;;;;49.60;27.50;;;;;;;2.85;79.80;100952.14;108769;1253;94807;-75
2023/12/16 08:11:12;;;;;;;46.40;25.60;;;;;;;2.89;80.07;100957.02;108606;1253;109958;-75
2023/12/16 08:13:38;;;;;;;49.50;24.40;;;;;;;2.91;80.01;100959.61;108821;1253;94342;-73
2023/12/16 08:16:08;;;;;;;48.00;25.00;;;;;;;2.92;80.14;100958.02;108806;1253;94574;-76
2023/12/16 08:18:35;;;;;;;47.40;25.70;;;;;;;2.91;79.99;100959.26;108796;1253;95521;-73
2023/12/16 08:21:02;;;;;;;43.90;23.10;;;;;;;2.94;80.13;100963.45;108865;1253;94417;-75
2023/12/16 08:23:28;;;;;;;45.70;24.30;;;;;;;2.96;79.97;100967.80;108758;1253;94576;-76
2023/12/16 08:25:55;;;;;;;56.50;27.10;;;;;;;3.01;80.26;100967.75;108810;1252;95145;-76
2023/12/16 08:28:23;;;;;;;50.00;27.40;;;;;;;3.06;80.04;100978.39;108544;1254;94342;-75
2023/12/16 08:30:52;;;;;;;53.40;28.40;;;;;;;3.08;80.06;100980.81;108834;1253;94252;-73
2023/12/16 08:33:18;;;;;;;45.50;25.20;;;;;;;3.10;80.18;100984.12;108761;1256;109825;-76
2023/12/16 08:35:45;;;;;;;45.30;23.70;;;;;;;3.09;79.82;100986.23;108614;1253;94602;-76
2023/12/16 08:38:12;;;;;;;47.70;26.40;;;;;;;3.11;80.09;100985.86;108845;1253;94481;-74
2023/12/16 08:40:38;;;;;;;49.30;25.50;;;;;;;3.13;80.08;100991.29;108852;1251;94226;-76
2023/12/16 08:43:05;;;;;;;51.20;27.70;;;;;;;3.12;80.03;100988.32;108916;1252;94570;-77
2023/12/16 08:45:32;;;;;;;47.70;26.30;;;;;;;3.13;80.23;100991.45;108592;1258;95739;-75
2023/12/16 08:47:58;;;;;;;47.30;25.60;;;;;;;3.15;80.21;100993.36;108823;1254;94634;-74
2023/12/16 08:50:24;;;;;;;51.00;24.20;;;;;;;3.17;80.19;100993.01;108817;1254;94295;-74
2023/12/16 08:52:51;;;;;;;50.60;24.90;;;;;;;3.19;80.23;100994.90;108835;1257;95260;-76
2023/12/16 08:55:27;;;;;;;48.80;26.60;;;;;;;3.20;80.01;100998.74;108576;1255;109873;-76
2023/12/16 08:57:54;;;;;;;55.30;30.30;;;;;;;3.21;80.26;100999.27;108843;1257;97316;-75
2023/12/16 09:00:21;;;;;;;57.00;30.60;;;;;;;3.22;80.27;100997.52;108838;1253;106275;-75
2023/12/16 09:02:48;;;;;;;51.40;29.50;;;;;;;3.21;80.03;100995.77;108810;1257;95067;-75
2023/12/16 09:05:16;;;;;;;60.30;33.60;;;;;;;3.21;80.24;100989.98;108850;1256;94464;-72
2023/12/16 09:07:42;;;;;;;67.10;34.50;;;;;;;3.21;80.19;100999.61;108810;1255;94526;-73
2023/12/16 09:10:09;;;;;;;62.80;34.50;;;;;;;3.20;80.11;101002.44;108828;1253;94592;-73
2023/12/16 09:12:49;;;;;;;;;;;;;;;;;;;;;
2023/12/16 09:15:45;;;;;;;49.90;27.20;;;;;;;3.20;80.12;100999.63;108756;1253;94291;-80
2023/12/16 09:18:44;;;;;;;56.40;30.00;;;;;;;3.22;80.27;100999.44;108608;1254;94806;-83
2023/12/16 09:21:34;;;;;;;53.20;28.20;;;;;;;3.24;80.38;101002.73;108523;1258;109882;-79
2023/12/16 09:24:12;;;;;;;53.80;28.00;;;;;;;3.28;80.38;101002.16;108591;1254;95462;-77
2023/12/16 09:26:41;;;;;;;44.90;25.40;;;;;;;3.30;80.29;101007.22;108824;1252;107951;-77
2023/12/16 09:29:09;;;;;;;45.90;25.30;;;;;;;3.33;80.36;101005.27;108794;1254;94230;-78
2023/12/16 09:31:35;;;;;;;49.00;25.80;;;;;;;3.37;80.28;101002.23;108521;1253;94683;-76
2023/12/16 09:34:12;;;;;;;47.90;26.30;;;;;;;3.40;80.41;101002.21;108712;1253;94611;-76
2023/12/16 09:36:50;;;;;;;48.00;26.20;;;;;;;3.40;80.22;101000.45;108495;1253;95496;-79
2023/12/16 09:39:45;;;;;;;63.30;35.30;;;;;;;3.42;80.21;101000.96;108460;1253;108974;-79
2023/12/16 09:42:29;;;;;;;47.10;25.20;;;;;;;3.44;80.22;100995.32;108576;1253;94343;-75
2023/12/16 09:44:58;;;;;;;52.00;27.70;;;;;;;3.48;80.32;100996.48;108685;1253;94420;-75
2023/12/16 09:47:30;;;;;;;45.10;24.60;;;;;;;3.50;80.25;100998.73;108574;1253;109517;-78
2023/12/16 09:50:02;;;;;;;43.60;24.00;;;;;;;3.53;80.43;101002.91;108478;1253;96408;-77
2023/12/16 09:52:29;;;;;;;43.90;23.50;;;;;;;3.54;80.39;101006.06;108445;1253;108927;-76
2023/12/16 09:54:56;;;;;;;57.80;30.80;;;;;;;3.56;80.20;101011.65;108366;1252;94531;-75
2023/12/16 09:57:34;;;;;;;46.60;25.50;;;;;;;3.59;80.23;101015.49;108659;1253;94291;-76
2023/12/16 10:00:29;;;;;;;41.90;24.30;;;;;;;3.60;80.27;101015.47;108579;1252;109682;-76
2023/12/16 10:02:57;;;;;;;38.00;20.40;;;;;;;3.63;80.28;101012.62;108522;1253;94871;-76
2023/12/16 10:05:28;;;;;;;41.00;21.70;;;;;;;3.65;80.38;101008.56;108640;1251;95091;-75
2023/12/16 10:08:04;;;;;;;53.70;26.70;;;;;;;3.66;80.27;101005.41;108570;1253;94701;-76
2023/12/16 10:10:40;;;;;;;53.80;26.50;;;;;;;3.67;80.41;101002.91;108526;1253;94335;-78
2023/12/16 10:13:14;;;;;;;47.00;25.80;;;;;;;3.68;80.34;101003.79;108674;1253;111095;-76
2023/12/16 10:15:41;;;;;;;46.10;22.90;;;;;;;3.71;80.41;101007.44;108580;1254;94573;-76
2023/12/16 10:18:10;;;;;;;40.00;19.80;;;;;;;3.73;80.46;101004.95;108446;1254;94535;-77
2023/12/16 10:20:43;;;;;;;42.30;22.30;;;;;;;3.72;80.25;101005.83;108803;1253;94268;-76
2023/12/16 10:23:11;;;;;;;40.00;20.80;;;;;;;3.73;80.43;101004.59;108478;1254;94450;-75
2023/12/16 10:25:37;;;;;;;45.70;23.70;;;;;;;3.75;80.28;101000.89;108809;1253;109490;-77
2023/12/16 10:28:04;;;;;;;47.80;23.60;;;;;;;3.74;80.24;101003.17;108827;1254;94575;-75
2023/12/16 10:30:33;;;;;;;39.10;21.40;;;;;;;3.72;80.35;101002.84;108504;1254;94322;-75
2023/12/16 10:33:03;;;;;;;46.40;23.40;;;;;;;3.75;80.40;101005.45;108533;1254;94398;-76
2023/12/16 10:35:30;;;;;;;50.80;26.50;;;;;;;3.79;80.31;101004.88;108490;1254;95029;-75
2023/12/16 10:37:57;;;;;;;48.60;25.70;;;;;;;3.81;80.32;101002.73;108550;1253;95318;-76
2023/12/16 10:40:27;;;;;;;54.20;33.60;;;;;;;3.84;80.46;101002.00;108592;1254;95466;-77
2023/12/16 10:42:54;;;;;;;48.60;27.60;;;;;;;3.85;80.44;100993.20;108793;1254;95154;-76
2023/12/16 10:45:21;;;;;;;58.30;32.80;;;;;;;3.85;80.31;100989.88;108796;1254;94516;-75
2023/12/16 10:47:51;;;;;;;42.70;23.70;;;;;;;3.86;80.30;100981.78;108745;1253;94368;-73
2023/12/16 10:50:20;;;;;;;43.70;22.90;;;;;;;3.87;80.22;100977.72;108752;1254;110506;-74
2023/12/16 10:52:59;;;;;;;40.40;22.10;;;;;;;3.90;80.33;100975.58;108738;1254;95879;-76
2023/12/16 10:55:39;;;;;;;47.10;22.40;;;;;;;3.92;80.37;100969.77;108713;1254;108241;-74
2023/12/16 10:58:23;;;;;;;41.40;20.90;;;;;;;3.90;80.32;100968.02;108662;1254;94360;-74
2023/12/16 11:03:47;;;;;;;41.80;21.10;;;;;;;3.96;80.58;100962.70;102822;1292;636774;-74
2023/12/16 11:06:33;;;;;;;42.70;21.30;;;;;;;3.96;80.49;100960.92;105527;1254;94258;-76
2023/12/16 11:09:05;;;;;;;40.20;20.90;;;;;;;3.97;80.51;100960.91;105767;1254;94389;-75
2023/12/16 11:11:34;;;;;;;46.30;22.60;;;;;;;3.98;80.55;100957.55;105729;1257;107153;-76
2023/12/16 11:14:02;;;;;;;45.50;20.90;;;;;;;3.99;80.41;100962.63;105500;1258;94837;-76
2023/12/16 11:16:42;;;;;;;48.60;25.00;;;;;;;3.98;80.54;100965.10;105694;1264;164632;-75
2023/12/16 11:19:12;;;;;;;40.80;21.30;;;;;;;3.97;80.40;100967.22;105595;1257;94579;-75